KP58

Port Hope Airport

Port Hope, Michigan, USA
METAR KP58 201751Z AUTO 02013KT 08/04 A2962 RMK AO1 SLP034 60001 T00830039 10100 20056 58015
Observed Flight Rules
Oct-20 @ 17:51 UTC (24 minutes ago)
Wind
20° at 13 knots
Temperatures Readings
Current 8°C / 46°F
Dewpoint 4°C / 39°F
Humidity 76%
Altimeter 29.62" Hg
Pressure 1003.4 hPa
Elevation 179
METAR KP58 201751Z AUTO 02013KT 08/04 A2962 RMK AO1 SLP034 60001 T00830039 10100 20056 58015
Observed Flight Rules
Oct-20 @ 17:51 UTC
(24 minutes ago)
Wind
20° at 13 knots
Temperature Dewpoint
8°C / 46°F 4°C / 39°F
Humidity Altimeter Pressure
76% 29.62" Hg 1003.4 hPa